Breckenridge, Colorado
Current Conditions -  °F | °C
As of 11:35 PM on Sunday 21 Dec 2014 (Local Time) from KCCU Reporting Station
Overcast Overcast  
Wind Chill:   Ceiling: 200
Heat Index: 23°   Visibility: NA
Dew Point: 18°   Wind: 30mph
Humidity: 80%   Direction: 290°WNW
Pressure: 29.75"   Gusts: NA
Location:  39.48°N, 106.04°W
Report Text: KCCU 220635Z AUTO 29026KT OVC002 M05/M08 A2975 RMK AO2 PWINO
Loading
Personal Weather Stations






























Interactive Weather Map New forecast layout! Learn more

10-Day Weather Forecast

Advertisements
Track Severe Weather on mobile